Time;durP1;ratioP1;P1;durP2;ratioP2;P2;SDS_P1;SDS_P2;PMS_P1;PMS_P2;Temp;Humidity;BMP_temperature;BMP_pressure;BME280_temperature;BME280_humidity;BME280_pressure;Samples;Min_cycle;Max_cycle;Signal;HPM_P1;HPM_P2
2022/10/27 00:02:18;;;;;;;14.52;7.78;;;;;;;3.32;67.24;99419.03;5011513;28;20050;-63
2022/10/27 00:04:43;;;;;;;15.18;8.40;;;;;;;3.27;67.27;99418.81;5010282;28;20533;-64
2022/10/27 00:07:09;;;;;;;18.00;8.52;;;;;;;3.18;67.75;99412.91;5010210;28;20092;-62
2022/10/27 00:09:35;;;;;;;17.70;8.70;;;;;;;3.13;67.74;99407.41;5011768;28;20090;-63
2022/10/27 00:12:00;;;;;;;19.40;9.20;;;;;;;3.13;67.94;99415.25;5011209;28;20506;-62
2022/10/27 00:14:26;;;;;;;30.02;9.57;;;;;;;3.10;68.21;99409.59;5010242;28;20058;-63
2022/10/27 00:16:54;;;;;;;14.63;8.32;;;;;;;3.08;68.04;99408.97;5011378;28;20041;-62
2022/10/27 00:19:23;;;;;;;15.35;8.05;;;;;;;3.06;68.13;99410.94;5011949;28;20099;-62
2022/10/27 00:21:52;;;;;;;16.25;8.82;;;;;;;3.03;68.34;99406.94;4993751;28;20050;-62
2022/10/27 00:24:18;;;;;;;21.60;9.32;;;;;;;3.01;67.99;99400.25;5011825;28;20056;-62
2022/10/27 00:26:44;;;;;;;17.60;9.18;;;;;;;3.03;68.46;99406.09;5011413;28;20076;-62
2022/10/27 00:29:10;;;;;;;22.05;9.68;;;;;;;3.04;68.27;99405.13;5011806;28;20451;-63
2022/10/27 00:31:35;;;;;;;15.40;8.70;;;;;;;3.03;68.14;99404.31;5011292;28;20550;-62
2022/10/27 00:34:01;;;;;;;15.82;8.25;;;;;;;3.03;68.01;99412.16;5011575;28;20091;-62
2022/10/27 00:36:27;;;;;;;17.15;8.48;;;;;;;3.05;68.29;99404.09;5011512;28;20042;-61
2022/10/27 00:38:57;;;;;;;19.83;8.30;;;;;;;3.02;68.11;99407.09;5011200;28;20545;-62
2022/10/27 00:41:28;;;;;;;14.00;8.10;;;;;;;2.98;68.40;99414.53;5011286;28;20103;-62
2022/10/27 00:43:55;;;;;;;18.20;8.70;;;;;;;3.00;68.09;99412.53;4993909;28;20054;-62
2022/10/27 00:46:32;;;;;;;14.52;8.32;;;;;;;3.04;67.97;99411.16;5011184;28;20053;-63
2022/10/27 00:49:09;;;;;;;15.93;9.68;;;;;;;3.04;68.20;99415.59;5011575;28;20491;-62
2022/10/27 00:51:45;;;;;;;20.65;10.07;;;;;;;2.99;68.53;99410.91;4993565;28;20141;-63
2022/10/27 00:54:12;;;;;;;14.90;8.80;;;;;;;2.95;68.25;99414.91;5011523;28;20450;-61
2022/10/27 00:56:38;;;;;;;18.83;8.52;;;;;;;2.95;68.59;99409.66;5011070;28;20065;-63
2022/10/27 00:59:04;;;;;;;19.58;9.13;;;;;;;2.98;68.60;99408.47;5010967;28;20061;-62
2022/10/27 01:01:31;;;;;;;17.15;8.32;;;;;;;2.93;68.08;99406.41;5011214;28;20054;-61
2022/10/27 01:03:57;;;;;;;12.98;8.85;;;;;;;2.88;68.37;99400.91;5011472;28;20038;-63
2022/10/27 01:06:23;;;;;;;20.08;9.10;;;;;;;2.84;68.52;99405.72;5009849;28;20144;-62
2022/10/27 01:08:50;;;;;;;17.67;8.35;;;;;;;2.81;68.58;99400.88;5009695;28;20041;-63
2022/10/27 01:11:15;;;;;;;20.25;9.80;;;;;;;2.78;68.60;99392.56;5011208;28;20050;-63
2022/10/27 01:13:41;;;;;;;16.40;9.45;;;;;;;2.81;68.50;99402.69;5009538;28;20068;-63
2022/10/27 01:16:15;;;;;;;14.13;9.00;;;;;;;2.80;68.68;99395.81;5000230;28;20046;-62
2022/10/27 01:18:44;;;;;;;20.60;9.85;;;;;;;2.80;68.56;99399.25;4991850;28;20034;-63
2022/10/27 01:21:31;;;;;;;16.73;9.68;;;;;;;2.76;68.79;99391.94;4991326;28;20236;-62
2022/10/27 01:24:09;;;;;;;23.23;10.23;;;;;;;2.78;68.68;99400.44;4993130;28;20108;-62
2022/10/27 01:26:48;;;;;;;14.52;8.48;;;;;;;2.80;68.51;99393.22;4994933;28;20054;-63
2022/10/27 01:29:52;;;;;;;16.15;8.80;;;;;;;2.79;68.22;99399.44;4977319;28;20061;-62
2022/10/27 01:32:32;;;;;;;19.30;8.32;;;;;;;2.78;68.29;99390.75;4992940;28;20240;-62
2022/10/27 01:35:11;;;;;;;11.52;7.70;;;;;;;2.79;68.49;99384.53;4994636;28;20145;-62
2022/10/27 01:37:42;;;;;;;13.73;7.30;;;;;;;2.75;68.17;99393.75;4993336;28;20047;-63
2022/10/27 01:40:49;;;;;;;15.25;8.57;;;;;;;2.77;68.42;99396.19;4994492;28;20606;-63
2022/10/27 01:43:20;;;;;;;12.25;7.88;;;;;;;2.81;68.14;99398.25;4972588;28;20439;-63
2022/10/27 01:45:46;;;;;;;15.23;8.40;;;;;;;2.81;68.10;99394.81;4956312;28;20047;-63
2022/10/27 01:48:12;;;;;;;16.88;8.25;;;;;;;2.83;68.46;99396.25;4971094;28;20046;-63
2022/10/27 01:50:40;;;;;;;14.23;7.72;;;;;;;2.85;67.94;99393.44;4992660;28;20045;-63
2022/10/27 01:53:06;;;;;;;16.33;8.38;;;;;;;2.79;67.86;99386.34;4992698;28;20042;-63
2022/10/27 01:56:02;;;;;;;16.50;9.25;;;;;;;2.85;68.02;99394.25;4976304;28;20046;-63
2022/10/27 01:59:10;;;;;;;15.48;9.50;;;;;;;2.84;68.05;99390.00;4992809;28;20413;-64
2022/10/27 02:01:41;;;;;;;15.63;8.38;;;;;;;2.82;68.03;99396.44;4990075;28;20105;-63
2022/10/27 02:04:48;;;;;;;16.88;7.95;;;;;;;2.82;68.20;99393.81;4994557;28;20484;-63
2022/10/27 02:07:25;;;;;;;18.13;8.02;;;;;;;2.81;67.89;99393.00;4987846;28;20069;-63
2022/10/27 02:10:07;;;;;;;17.00;7.00;;;;;;;2.78;68.25;99395.19;4993991;28;20077;-63
2022/10/27 02:12:35;;;;;;;21.33;8.30;;;;;;;2.73;67.99;99388.69;4994176;28;20053;-63
2022/10/27 02:15:05;;;;;;;13.50;7.07;;;;;;;2.77;68.13;99399.63;4992668;28;20088;-64
2022/10/27 02:17:35;;;;;;;14.90;7.88;;;;;;;2.76;68.23;99395.38;4976331;28;20038;-63
2022/10/27 02:20:03;;;;;;;15.57;7.75;;;;;;;2.77;67.96;99393.59;4992932;28;20050;-63
2022/10/27 02:22:31;;;;;;;16.63;7.53;;;;;;;2.81;67.96;99394.81;4993417;28;20049;-63
2022/10/27 02:24:56;;;;;;;14.18;7.72;;;;;;;2.83;67.84;99392.84;4992050;28;20046;-63
2022/10/27 02:27:34;;;;;;;16.52;8.02;;;;;;;2.83;67.81;99384.97;4992382;28;20129;-62
2022/10/27 02:30:02;;;;;;;14.98;7.63;;;;;;;2.85;67.25;99394.25;4992390;28;20136;-62
2022/10/27 02:32:30;;;;;;;19.40;8.13;;;;;;;2.86;67.50;99395.06;4992532;28;20136;-64
2022/10/27 02:34:56;;;;;;;13.43;8.43;;;;;;;2.82;67.26;99394.63;4992505;28;20078;-64
2022/10/27 02:37:30;;;;;;;14.68;7.95;;;;;;;2.84;67.45;99400.50;4992418;28;20133;-63
2022/10/27 02:39:56;;;;;;;21.45;7.95;;;;;;;2.82;67.56;99402.47;4993432;28;20068;-63
2022/10/27 02:42:22;;;;;;;13.65;7.78;;;;;;;2.82;67.41;99399.06;4993366;28;20050;-63
2022/10/27 02:44:47;;;;;;;14.02;7.47;;;;;;;2.83;67.52;99401.50;4993638;28;20120;-63
2022/10/27 02:47:13;;;;;;;17.73;7.63;;;;;;;2.88;67.31;99403.53;4991860;28;20057;-63
2022/10/27 02:49:38;;;;;;;15.63;7.57;;;;;;;2.86;67.41;99405.56;4991872;28;20050;-63
2022/10/27 02:52:04;;;;;;;13.70;7.72;;;;;;;2.87;67.08;99402.72;4993135;28;20042;-63
2022/10/27 02:54:31;;;;;;;10.50;7.15;;;;;;;2.82;67.55;99394.63;4991922;28;20050;-64
2022/10/27 02:56:57;;;;;;;15.77;7.53;;;;;;;2.84;67.65;99395.25;4992911;28;20400;-62
2022/10/27 02:59:22;;;;;;;19.02;7.40;;;;;;;2.85;67.63;99394.25;4992986;28;20122;-63
2022/10/27 03:01:48;;;;;;;19.58;8.95;;;;;;;2.85;67.45;99390.81;4993103;28;20050;-63
2022/10/27 03:04:14;;;;;;;17.95;9.10;;;;;;;2.88;67.74;99404.38;4993520;28;20121;-62
2022/10/27 03:06:39;;;;;;;16.20;8.27;;;;;;;2.84;67.27;99390.00;4992965;28;20046;-63
2022/10/27 03:09:05;;;;;;;23.42;7.88;;;;;;;2.84;67.84;99397.06;4992006;28;20042;-63
2022/10/27 03:11:31;;;;;;;29.17;9.82;;;;;;;2.79;68.12;99394.19;4993173;28;20064;-63
2022/10/27 03:13:56;;;;;;;23.17;8.95;;;;;;;2.80;68.18;99398.44;4975657;28;20066;-63
2022/10/27 03:16:22;;;;;;;24.80;9.70;;;;;;;2.83;68.13;99395.44;4993409;28;20047;-61
2022/10/27 03:18:48;;;;;;;22.55;9.38;;;;;;;2.84;68.25;99395.25;4993261;28;20380;-63
2022/10/27 03:21:14;;;;;;;23.05;9.27;;;;;;;2.84;68.47;99392.63;4991817;28;20503;-63
2022/10/27 03:23:40;;;;;;;23.20;8.82;;;;;;;2.84;68.13;99394.44;4991718;28;20480;-63
2022/10/27 03:26:06;;;;;;;21.55;9.07;;;;;;;2.82;68.10;99399.84;4992635;28;20046;-64
2022/10/27 03:28:34;;;;;;;18.90;8.82;;;;;;;2.80;68.40;99394.00;4993092;28;20408;-64
2022/10/27 03:31:02;;;;;;;17.23;8.38;;;;;;;2.79;68.28;99391.56;4992842;28;20053;-63
2022/10/27 03:33:28;;;;;;;19.15;9.23;;;;;;;2.78;68.23;99405.66;5010548;28;20629;-63
2022/10/27 03:35:53;;;;;;;17.50;8.57;;;;;;;2.77;68.56;99402.25;5012340;28;20121;-64
2022/10/27 03:38:19;;;;;;;23.77;8.13;;;;;;;2.79;68.28;99404.66;5012405;28;20042;-63
2022/10/27 03:40:44;;;;;;;21.80;8.65;;;;;;;2.71;68.19;99403.78;5012037;28;20048;-63
2022/10/27 03:43:10;;;;;;;21.85;9.23;;;;;;;2.67;68.44;99404.34;5010961;28;20117;-63
2022/10/27 03:45:36;;;;;;;16.95;8.75;;;;;;;2.65;68.65;99406.34;5010915;28;20423;-63
2022/10/27 03:48:07;;;;;;;17.77;7.47;;;;;;;2.52;68.83;99404.38;5011501;28;20084;-63
2022/10/27 03:50:33;;;;;;;;;;;;;;;2.47;69.10;99411.97;4995121;28;20049;-64
2022/10/27 03:52:59;;;;;;;14.32;7.28;;;;;;;2.42;69.35;99403.88;5012064;28;20310;-63
2022/10/27 03:55:24;;;;;;;13.13;7.05;;;;;;;2.47;69.12;99407.56;5012067;28;20081;-63
2022/10/27 03:57:50;;;;;;;16.95;7.25;;;;;;;2.37;69.27;99407.03;5010472;28;20519;-65
2022/10/27 04:00:16;;;;;;;15.90;8.00;;;;;;;2.40;69.12;99401.44;5010556;28;20539;-64
2022/10/27 04:02:42;;;;;;;12.93;7.25;;;;;;;2.41;69.43;99400.47;5011957;28;20041;-63
2022/10/27 04:05:08;;;;;;;12.85;7.15;;;;;;;2.38;69.36;99405.22;5011761;28;20503;-64
2022/10/27 04:07:33;;;;;;;17.08;7.75;;;;;;;2.33;69.61;99412.84;5011630;28;20510;-64
2022/10/27 04:09:59;;;;;;;11.02;7.22;;;;;;;2.26;69.42;99420.56;5011317;28;20049;-64
2022/10/27 04:12:25;;;;;;;21.25;8.30;;;;;;;2.27;69.71;99417.78;5011589;28;20046;-63
2022/10/27 04:14:51;;;;;;;15.75;8.65;;;;;;;2.26;69.83;99415.34;5010424;28;20072;-63
2022/10/27 04:17:17;;;;;;;13.45;7.95;;;;;;;2.36;69.56;99417.69;5011672;28;20037;-63
2022/10/27 04:19:43;;;;;;;16.48;8.55;;;;;;;2.41;69.31;99421.38;5011850;28;20057;-64
2022/10/27 04:22:09;;;;;;;12.73;7.93;;;;;;;2.45;69.05;99422.63;5011362;28;20042;-62
2022/10/27 04:24:34;;;;;;;19.05;8.13;;;;;;;2.48;68.95;99421.47;5011505;28;20085;-63
2022/10/27 04:27:00;;;;;;;11.10;7.63;;;;;;;2.39;69.24;99427.78;5010389;28;20040;-62
2022/10/27 04:29:26;;;;;;;12.43;7.40;;;;;;;2.41;69.43;99416.16;5011549;28;20100;-64
2022/10/27 04:31:51;;;;;;;16.50;9.00;;;;;;;2.39;69.27;99431.22;4993963;28;20053;-64
2022/10/27 04:34:17;;;;;;;15.82;9.18;;;;;;;2.27;69.90;99430.88;5010274;28;20068;-63
2022/10/27 04:36:42;;;;;;;15.75;9.23;;;;;;;2.13;70.05;99426.47;5010202;28;20045;-61
2022/10/27 04:39:12;;;;;;;20.85;8.95;;;;;;;2.12;70.23;99437.94;4993333;28;20045;-63
2022/10/27 04:41:39;;;;;;;18.48;9.25;;;;;;;2.09;70.75;99438.28;4991725;28;20185;-62
2022/10/27 04:44:05;;;;;;;17.85;9.52;;;;;;;2.06;70.80;99430.81;4990715;28;20464;-63
2022/10/27 04:46:30;;;;;;;16.50;10.63;;;;;;;2.15;70.91;99444.59;4991925;28;20128;-61
2022/10/27 04:48:56;;;;;;;18.15;9.50;;;;;;;2.14;71.22;99437.72;4992151;28;20082;-62
2022/10/27 04:51:22;;;;;;;17.25;9.30;;;;;;;2.22;70.43;99441.06;4991659;28;20133;-63
2022/10/27 04:53:47;;;;;;;22.23;9.75;;;;;;;2.24;70.34;99433.06;4991773;28;20057;-63
2022/10/27 04:56:13;;;;;;;21.67;9.10;;;;;;;2.33;70.34;99436.38;4991404;28;20054;-63
2022/10/27 04:58:39;;;;;;;15.45;9.52;;;;;;;2.37;70.19;99437.63;4992423;28;20145;-64
2022/10/27 05:01:09;;;;;;;16.88;9.80;;;;;;;2.39;69.87;99433.03;4995354;28;20133;-64
2022/10/27 05:03:35;;;;;;;15.32;9.40;;;;;;;2.46;69.87;99433.91;4977932;28;20046;-64
2022/10/27 05:06:01;;;;;;;23.02;11.48;;;;;;;2.48;70.02;99432.72;4993924;28;20054;-61
2022/10/27 05:08:27;;;;;;;22.40;10.75;;;;;;;2.56;69.32;99437.06;4995582;28;20038;-66
2022/10/27 05:10:52;;;;;;;23.65;11.10;;;;;;;2.57;69.56;99433.44;4995226;28;20053;-64
2022/10/27 05:13:18;;;;;;;28.52;11.18;;;;;;;2.60;69.51;99438.28;4995404;28;20046;-69
2022/10/27 05:15:44;;;;;;;19.35;10.38;;;;;;;2.69;69.50;99444.22;4993720;28;20499;-67
2022/10/27 05:18:10;;;;;;;25.98;11.90;;;;;;;2.74;69.23;99441.88;4994407;28;20046;-65
2022/10/27 05:20:35;;;;;;;19.10;10.18;;;;;;;2.83;68.96;99453.84;4991652;28;20050;-65
2022/10/27 05:23:01;;;;;;;26.02;11.85;;;;;;;2.91;68.81;99442.44;4994673;28;20523;-66
2022/10/27 05:25:27;;;;;;;27.13;11.73;;;;;;;3.09;68.74;99449.84;4994609;28;20566;-62
2022/10/27 05:27:52;;;;;;;25.42;11.50;;;;;;;3.21;68.12;99458.03;4994280;28;20423;-63
2022/10/27 05:30:18;;;;;;;31.40;12.65;;;;;;;3.29;67.81;99440.38;4994343;28;20133;-65
2022/10/27 05:32:44;;;;;;;25.45;13.60;;;;;;;3.48;67.48;99452.03;4993458;28;20096;-64
2022/10/27 05:35:09;;;;;;;29.15;13.15;;;;;;;3.38;67.55;99452.38;4994006;28;20090;-63
2022/10/27 05:37:35;;;;;;;28.25;13.60;;;;;;;3.42;67.54;99455.41;4994102;28;20038;-64
2022/10/27 05:40:01;;;;;;;26.60;14.73;;;;;;;3.50;66.91;99455.28;4992253;28;20120;-63
2022/10/27 05:42:27;;;;;;;27.42;15.40;;;;;;;3.56;66.93;99459.75;4993747;28;20125;-63
2022/10/27 05:44:52;;;;;;;28.27;16.17;;;;;;;3.70;66.84;99465.91;4994406;28;20104;-64
2022/10/27 05:47:18;;;;;;;29.80;16.85;;;;;;;3.78;66.05;99464.94;4992614;28;20129;-62
2022/10/27 05:49:43;;;;;;;36.30;16.02;;;;;;;3.75;66.22;99467.97;4992217;28;20508;-63
2022/10/27 05:52:09;;;;;;;35.75;16.65;;;;;;;3.84;65.61;99459.75;5007467;28;20038;-63
2022/10/27 05:54:35;;;;;;;35.72;14.95;;;;;;;3.91;66.04;99458.97;5012487;28;20049;-66
2022/10/27 05:57:01;;;;;;;27.10;14.20;;;;;;;3.86;65.92;99468.25;5011658;28;20045;-64
2022/10/27 05:59:48;;;;;;;42.22;15.00;;;;;;;3.83;66.66;99470.44;5013296;28;20085;-62
2022/10/27 06:02:32;;;;;;;28.05;13.65;;;;;;;3.89;65.75;99469.69;4967125;28;20048;-64
2022/10/27 06:04:58;;;;;;;22.95;12.55;;;;;;;4.00;65.63;99466.53;5010860;28;20466;-63
2022/10/27 06:07:23;;;;;;;27.50;13.30;;;;;;;4.10;64.75;99466.16;5011774;28;20042;-63
2022/10/27 06:09:49;;;;;;;32.13;12.40;;;;;;;4.10;65.19;99466.97;5012158;28;20037;-64
2022/10/27 06:12:14;;;;;;;33.13;12.95;;;;;;;4.10;64.82;99469.59;5012364;28;20038;-63
2022/10/27 06:14:40;;;;;;;36.17;12.65;;;;;;;4.16;65.15;99473.25;4994246;28;20050;-62
2022/10/27 06:17:06;;;;;;;26.02;12.40;;;;;;;4.23;64.40;99473.28;5012158;28;20120;-64
2022/10/27 06:19:31;;;;;;;21.92;11.85;;;;;;;4.28;65.07;99481.41;5013039;28;20049;-63
2022/10/27 06:21:57;;;;;;;30.95;12.30;;;;;;;4.33;64.20;99474.56;5011343;28;20123;-62
2022/10/27 06:24:22;;;;;;;29.40;14.18;;;;;;;4.46;64.04;99478.25;5010573;28;20041;-65
2022/10/27 06:26:48;;;;;;;28.52;12.93;;;;;;;4.49;63.96;99480.50;5010509;28;20061;-65
2022/10/27 06:29:14;;;;;;;26.02;12.93;;;;;;;4.51;63.65;99489.00;5011676;28;20045;-64
2022/10/27 06:31:41;;;;;;;19.80;12.23;;;;;;;4.60;64.04;99487.00;5010393;28;20053;-63
2022/10/27 06:34:07;;;;;;;25.10;12.85;;;;;;;4.75;63.59;99479.78;5012952;28;20045;-64
2022/10/27 06:36:33;;;;;;;25.52;13.38;;;;;;;4.94;63.31;99486.09;5012414;28;20053;-65
2022/10/27 06:38:58;;;;;;;22.75;12.13;;;;;;;5.04;63.18;99486.53;4994567;28;20042;-64
2022/10/27 06:41:24;;;;;;;26.98;13.32;;;;;;;5.14;62.42;99492.19;5010772;28;20056;-64
2022/10/27 06:43:49;;;;;;;28.25;12.68;;;;;;;5.24;62.32;99490.00;5011533;28;20073;-64
2022/10/27 06:46:15;;;;;;;23.33;12.65;;;;;;;5.33;61.86;99495.09;5012442;28;20056;-64
2022/10/27 06:48:41;;;;;;;27.60;11.07;;;;;;;5.29;62.16;99486.78;4993383;28;20042;-64
2022/10/27 06:51:06;;;;;;;22.40;10.57;;;;;;;5.37;62.32;99488.41;5010761;28;20052;-63
2022/10/27 06:53:32;;;;;;;24.05;12.85;;;;;;;5.45;61.31;99499.53;5011031;28;20550;-64
2022/10/27 06:55:58;;;;;;;23.65;12.48;;;;;;;5.57;61.80;99509.47;5009871;28;20065;-64
2022/10/27 06:58:23;;;;;;;28.42;13.23;;;;;;;5.64;61.11;99497.91;5009186;28;20080;-64
2022/10/27 07:00:49;;;;;;;28.58;13.25;;;;;;;5.63;61.09;99501.56;5011325;28;20033;-64
2022/10/27 07:03:15;;;;;;;25.55;11.77;;;;;;;5.57;61.49;99497.13;5011475;28;20153;-64
2022/10/27 07:05:40;;;;;;;22.52;12.00;;;;;;;5.57;61.75;99498.94;5009920;28;20474;-63
2022/10/27 07:08:06;;;;;;;20.38;11.65;;;;;;;5.57;61.56;99502.38;5008511;28;20053;-65
2022/10/27 07:10:32;;;;;;;26.67;12.50;;;;;;;5.57;61.57;99501.56;5008748;28;20045;-64
2022/10/27 07:12:59;;;;;;;30.40;12.77;;;;;;;5.58;61.44;99495.28;5009163;28;20459;-63
2022/10/27 07:15:30;;;;;;;26.50;11.70;;;;;;;5.69;61.38;99499.94;5011471;28;20057;-63
2022/10/27 07:17:57;;;;;;;29.50;13.27;;;;;;;5.74;61.34;99494.09;4993448;28;20048;-64
2022/10/27 07:20:23;;;;;;;29.70;13.68;;;;;;;5.83;60.89;99506.03;5009918;28;20193;-64
2022/10/27 07:22:48;;;;;;;21.73;13.07;;;;;;;5.87;61.20;99508.03;5009623;28;20178;-64
2022/10/27 07:25:14;;;;;;;36.10;14.25;;;;;;;5.90;60.80;99499.72;5010736;28;20050;-64
2022/10/27 07:27:39;;;;;;;25.85;12.77;;;;;;;5.92;60.73;99502.97;5011796;28;20052;-63
2022/10/27 07:30:05;;;;;;;31.88;13.38;;;;;;;5.87;60.50;99515.13;5009872;28;20042;-64
2022/10/27 07:32:31;;;;;;;23.15;11.68;;;;;;;5.82;61.26;99514.91;5011153;28;20042;-64
2022/10/27 07:34:57;;;;;;;22.05;12.52;;;;;;;5.72;61.06;99509.25;5010301;28;20530;-62
2022/10/27 07:37:22;;;;;;;34.95;14.05;;;;;;;5.57;61.23;99502.38;5011049;28;20046;-64
2022/10/27 07:39:48;;;;;;;28.23;13.20;;;;;;;5.47;61.54;99507.22;5010307;28;20541;-64
2022/10/27 07:42:14;;;;;;;27.95;13.00;;;;;;;5.34;62.60;99507.22;5009721;28;20049;-65
2022/10/27 07:44:40;;;;;;;21.08;12.38;;;;;;;5.24;62.92;99510.25;5009520;28;20579;-65
2022/10/27 07:47:06;;;;;;;24.10;13.18;;;;;;;5.15;63.20;99514.88;5011091;28;20045;-64
2022/10/27 07:49:31;;;;;;;35.92;13.25;;;;;;;5.10;63.03;99508.59;5009908;28;20156;-63
2022/10/27 07:51:57;;;;;;;25.75;13.35;;;;;;;5.08;63.92;99515.84;5011373;28;20037;-65
2022/10/27 07:54:22;;;;;;;30.73;13.70;;;;;;;5.05;63.54;99514.41;5011362;28;20050;-63
2022/10/27 07:56:48;;;;;;;25.73;13.98;;;;;;;5.08;63.23;99514.03;4992775;28;20046;-64
2022/10/27 07:59:14;;;;;;;34.60;14.18;;;;;;;5.10;63.75;99513.84;5011213;28;20061;-63
2022/10/27 08:01:39;;;;;;;28.65;13.75;;;;;;;5.12;63.71;99514.47;5011405;28;20121;-64
2022/10/27 08:04:05;;;;;;;32.00;14.05;;;;;;;5.09;63.50;99509.56;5011104;28;20487;-64
2022/10/27 08:06:30;;;;;;;33.25;14.88;;;;;;;5.05;63.28;99511.00;5011483;28;20515;-63
2022/10/27 08:08:56;;;;;;;25.88;15.00;;;;;;;5.04;64.30;99518.06;5011785;28;20044;-63
2022/10/27 08:11:22;;;;;;;26.02;14.80;;;;;;;5.03;63.92;99513.81;5010990;28;20052;-63
2022/10/27 08:13:48;;;;;;;33.28;15.32;;;;;;;5.05;64.63;99514.41;5010974;28;20077;-63
2022/10/27 08:16:14;;;;;;;32.95;15.05;;;;;;;5.07;64.36;99506.34;5011394;28;20073;-64
2022/10/27 08:18:39;;;;;;;31.35;14.73;;;;;;;5.17;64.04;99520.72;5009656;28;20081;-64
2022/10/27 08:21:05;;;;;;;23.70;14.05;;;;;;;5.17;63.65;99525.16;5009648;28;20046;-61
2022/10/27 08:23:31;;;;;;;24.10;13.77;;;;;;;5.17;63.75;99512.03;5008398;28;20410;-65
2022/10/27 08:25:56;;;;;;;29.17;14.77;;;;;;;5.29;63.68;99515.69;5009209;28;20437;-65
2022/10/27 08:28:23;;;;;;;22.00;12.10;;;;;;;5.37;64.24;99509.44;5011010;28;20125;-67
2022/10/27 08:30:50;;;;;;;26.80;13.52;;;;;;;5.46;63.51;99514.28;5009162;28;20661;-66
2022/10/27 08:33:16;;;;;;;32.33;14.90;;;;;;;5.51;62.86;99516.34;5013415;28;20042;-66
2022/10/27 08:35:42;;;;;;;31.85;14.23;;;;;;;5.54;63.19;99515.13;5015058;28;20058;-67
2022/10/27 08:38:13;;;;;;;28.98;14.50;;;;;;;5.55;62.93;99514.91;5013930;28;20042;-67
2022/10/27 08:40:42;;;;;;;31.52;16.35;;;;;;;5.55;63.27;99525.44;5015072;28;20092;-67
2022/10/27 08:43:16;;;;;;;30.33;16.27;;;;;;;5.51;63.36;99516.34;5013650;28;20061;-66
2022/10/27 08:46:00;;;;;;;27.73;14.77;;;;;;;5.53;63.09;99524.00;5013915;28;20042;-63
2022/10/27 08:48:26;;;;;;;36.65;16.55;;;;;;;5.54;63.27;99517.75;5015214;28;20407;-68
2022/10/27 08:50:52;;;;;;;38.88;16.10;;;;;;;5.59;63.31;99521.41;5013981;28;20462;-68
2022/10/27 08:53:28;;;;;;;32.20;15.35;;;;;;;5.62;63.21;99510.47;5013437;28;20033;-69
2022/10/27 08:56:02;;;;;;;28.45;15.75;;;;;;;5.65;62.63;99522.41;5013564;28;20146;-67
2022/10/27 08:58:39;;;;;;;30.88;15.70;;;;;;;5.60;62.96;99515.13;5014847;28;20112;-67
2022/10/27 09:01:08;;;;;;;33.15;15.60;;;;;;;5.62;63.76;99521.00;5012755;28;20088;-67
2022/10/27 09:03:33;;;;;;;32.22;15.15;;;;;;;5.64;63.55;99518.94;5014778;28;20095;-67
2022/10/27 09:06:23;;;;;;;29.00;14.82;;;;;;;5.66;63.47;99518.78;5014106;28;20053;-68
2022/10/27 09:09:18;;;;;;;33.15;15.38;;;;;;;5.68;62.73;99520.19;5013274;28;20507;-69
2022/10/27 09:11:55;;;;;;;30.35;14.32;;;;;;;5.79;62.21;99515.31;5012970;28;20526;-67
2022/10/27 09:14:22;;;;;;;32.40;14.93;;;;;;;5.88;62.50;99519.34;5012921;28;20058;-66
2022/10/27 09:16:55;;;;;;;28.77;14.73;;;;;;;5.95;62.36;99516.78;5014148;28;20435;-67
2022/10/27 09:19:22;;;;;;;;;;;;;;;5.97;62.23;99522.63;5013973;28;20038;-66
2022/10/27 09:21:50;;;;;;;26.02;14.00;;;;;;;5.86;62.28;99524.03;5014143;28;19932;-67
2022/10/27 09:24:20;;;;;;;28.55;14.85;;;;;;;5.84;62.80;99518.97;5014971;28;20050;-68
2022/10/27 09:26:46;;;;;;;;;;;;;;;5.87;62.63;99518.56;5014281;28;20432;-67
2022/10/27 09:29:22;;;;;;;28.40;14.23;;;;;;;5.97;62.58;99520.81;5014229;28;19925;-63
2022/10/27 09:31:57;;;;;;;26.65;13.75;;;;;;;5.99;62.12;99515.34;5014234;28;20050;-66
2022/10/27 09:34:32;;;;;;;29.23;14.30;;;;;;;6.02;62.13;99510.47;5012622;28;20052;-67
2022/10/27 09:36:58;;;;;;;33.25;13.95;;;;;;;6.03;62.42;99520.00;5012662;28;20088;-66
2022/10/27 09:39:23;;;;;;;28.45;13.48;;;;;;;6.09;61.73;99513.91;5013298;28;20042;-66
2022/10/27 09:41:49;;;;;;;23.88;12.55;;;;;;;6.07;61.88;99513.31;5012519;28;20711;-66
2022/10/27 09:44:20;;;;;;;23.10;12.80;;;;;;;6.07;62.82;99512.50;4995836;28;20045;-66
2022/10/27 09:47:04;;;;;;;25.67;12.95;;;;;;;6.07;62.21;99510.69;4996498;28;20065;-66
2022/10/27 09:49:39;;;;;;;27.17;13.07;;;;;;;6.21;62.21;99515.94;5013832;28;20060;-67
2022/10/27 09:52:17;;;;;;;22.17;13.38;;;;;;;6.25;61.55;99517.94;5012472;28;20466;-66
2022/10/27 09:54:53;;;;;;;27.08;14.00;;;;;;;6.32;62.18;99521.38;5013391;28;20581;-67
2022/10/27 09:57:25;;;;;;;24.58;13.02;;;;;;;6.39;61.45;99520.56;5012892;28;20117;-66
2022/10/27 10:00:00;;;;;;;25.17;13.80;;;;;;;6.45;61.67;99522.34;5011180;28;20053;-65
2022/10/27 10:02:30;;;;;;;23.30;13.93;;;;;;;6.49;61.68;99516.44;5010875;28;20041;-67
2022/10/27 10:04:57;;;;;;;35.83;14.70;;;;;;;6.55;61.52;99512.19;5010269;28;20046;-67
2022/10/27 10:07:37;;;;;;;28.40;14.18;;;;;;;6.59;61.23;99518.66;5011681;28;20509;-66
2022/10/27 10:10:29;;;;;;;24.38;14.70;;;;;;;6.52;61.16;99520.50;5011517;28;20057;-67
2022/10/27 10:13:02;;;;;;;28.70;14.02;;;;;;;6.55;61.22;99520.06;5009201;28;20156;-66
2022/10/27 10:15:29;;;;;;;25.42;13.88;;;;;;;6.48;60.97;99520.09;5010885;28;20049;-67
2022/10/27 10:17:58;;;;;;;24.83;13.27;;;;;;;6.49;61.30;99523.53;5010986;28;20038;-67
2022/10/27 10:20:33;;;;;;;28.55;14.38;;;;;;;6.45;61.80;99519.72;4994022;28;20069;-67
2022/10/27 10:23:03;;;;;;;31.05;15.20;;;;;;;6.40;61.41;99520.31;5010922;28;20042;-67
2022/10/27 10:25:32;;;;;;;30.23;14.90;;;;;;;6.46;61.45;99534.50;5011062;28;20100;-66
2022/10/27 10:28:01;;;;;;;24.88;12.27;;;;;;;6.45;62.07;99517.88;5010971;28;20485;-66
2022/10/27 10:30:33;;;;;;;23.60;12.80;;;;;;;6.46;62.05;99529.22;5012733;28;20046;-66
2022/10/27 10:32:59;;;;;;;25.83;13.65;;;;;;;6.47;62.06;99530.84;5012456;28;20380;-68
2022/10/27 10:35:41;;;;;;;25.67;11.98;;;;;;;6.50;61.96;99530.41;5009890;28;20096;-65
2022/10/27 10:38:26;;;;;;;25.98;13.45;;;;;;;6.50;62.16;99533.06;5010026;28;20046;-68
2022/10/27 10:41:15;;;;;;;25.75;13.10;;;;;;;6.53;61.84;99541.38;5011814;28;20046;-68
2022/10/27 10:43:44;;;;;;;24.48;12.82;;;;;;;6.53;62.32;99525.56;5011332;28;20467;-68
2022/10/27 10:46:23;;;;;;;25.20;13.77;;;;;;;6.51;62.46;99532.06;5009603;28;20499;-66
2022/10/27 10:48:55;;;;;;;29.58;12.95;;;;;;;6.51;62.23;99535.50;5012788;28;20124;-67
2022/10/27 10:51:29;;;;;;;28.48;13.93;;;;;;;6.49;62.48;99540.16;5011604;28;20053;-66
2022/10/27 10:54:14;;;;;;;26.08;14.05;;;;;;;6.49;62.35;99539.34;5012882;28;20069;-67
2022/10/27 10:56:42;;;;;;;32.67;14.13;;;;;;;6.49;62.31;99534.88;5010168;28;20038;-67
2022/10/27 10:59:13;;;;;;;21.15;12.85;;;;;;;6.49;62.87;99539.34;5012413;28;20060;-67
2022/10/27 11:01:42;;;;;;;26.05;13.65;;;;;;;6.50;62.25;99531.25;5012676;28;20045;-67
2022/10/27 11:04:23;;;;;;;26.60;13.20;;;;;;;6.53;62.32;99537.91;5008780;28;20201;-67
2022/10/27 11:07:20;;;;;;;24.27;13.55;;;;;;;6.55;62.70;99543.78;4975079;28;21006;-69
2022/10/27 11:10:02;;;;;;;31.13;14.13;;;;;;;6.54;62.31;99534.28;5008630;28;20112;-67
2022/10/27 11:12:46;;;;;;;30.00;13.50;;;;;;;6.59;62.74;99539.75;5008688;28;20052;-67
2022/10/27 11:15:35;;;;;;;28.85;13.57;;;;;;;6.56;62.50;99540.97;5008306;28;20108;-66
2022/10/27 11:18:09;;;;;;;32.05;14.65;;;;;;;6.58;62.47;99538.09;5009502;28;20073;-67
2022/10/27 11:20:36;;;;;;;28.35;14.27;;;;;;;6.56;63.04;99532.25;5008796;28;20053;-68
2022/10/27 11:23:15;;;;;;;23.67;14.70;;;;;;;6.54;63.29;99542.97;4991812;28;20077;-66
2022/10/27 11:25:41;;;;;;;29.45;14.15;;;;;;;6.56;62.76;99546.22;4977393;28;20133;-66
2022/10/27 11:28:30;;;;;;;35.45;15.60;;;;;;;6.62;63.18;99544.59;4988821;28;20125;-68
2022/10/27 11:31:04;;;;;;;25.15;12.35;;;;;;;6.66;62.51;99542.34;4985817;28;20050;-67
2022/10/27 11:33:45;;;;;;;24.73;14.13;;;;;;;6.67;62.49;99541.31;4988613;28;20538;-67
2022/10/27 11:36:43;;;;;;;35.67;14.52;;;;;;;6.65;62.56;99533.63;4988590;28;20051;-67
2022/10/27 11:39:44;;;;;;;32.35;13.93;;;;;;;6.63;62.73;99529.59;4989529;28;20456;-67
2022/10/27 11:42:28;;;;;;;28.80;14.38;;;;;;;6.60;62.71;99542.16;4988579;28;20467;-68